Time;durP1;ratioP1;P1;durP2;ratioP2;P2;SDS_P1;SDS_P2;PMS_P1;PMS_P2;Temp;Humidity;BMP_temperature;BMP_pressure;BME280_temperature;BME280_humidity;BME280_pressure;Samples;Min_cycle;Max_cycle;Signal;HPM_P1;HPM_P2
2022/02/25 00:01:51;;;;;;;25.10;14.88;;;;;;;1.38;73.49;100587.34;5070250;28;20035;-22
2022/02/25 00:04:16;;;;;;;26.27;16.58;;;;;;;1.57;73.75;100594.31;5052128;28;20032;-23
2022/02/25 00:06:42;;;;;;;82.97;38.03;;;;;;;1.67;74.45;100582.91;5051941;28;20025;-23
2022/02/25 00:09:07;;;;;;;32.47;17.80;;;;;;;1.70;73.69;100583.44;5051744;28;20661;-22
2022/02/25 00:11:33;;;;;;;27.02;16.38;;;;;;;1.33;75.21;100596.66;5070012;28;20143;-21
2022/02/25 00:13:58;;;;;;;27.55;16.90;;;;;;;1.53;74.63;100592.97;5052121;28;20032;-22
2022/02/25 00:16:24;;;;;;;26.38;15.57;;;;;;;1.64;74.11;100599.81;5070425;28;20048;-22
2022/02/25 00:18:49;;;;;;;39.53;23.38;;;;;;;1.96;72.24;100598.47;5069835;28;20025;-22
2022/02/25 00:21:15;;;;;;;20.35;12.75;;;;;;;1.64;69.66;100597.19;5069516;28;20028;-22
2022/02/25 00:23:40;;;;;;;18.10;10.15;;;;;;;1.40;68.87;100597.72;5069571;28;20028;-22
2022/02/25 00:26:06;;;;;;;26.80;14.07;;;;;;;1.42;71.70;100580.00;5052096;28;20043;-22
2022/02/25 00:28:31;;;;;;;26.50;16.17;;;;;;;1.47;72.29;100588.28;5069634;28;20029;-22
2022/02/25 00:30:56;;;;;;;26.65;16.73;;;;;;;1.47;73.04;100590.91;5035193;28;20040;-22
2022/02/25 00:33:22;;;;;;;28.65;16.48;;;;;;;1.58;72.48;100580.19;5051864;28;20060;-23
2022/02/25 00:35:49;;;;;;;26.65;15.30;;;;;;;1.52;72.40;100596.56;5069488;28;20261;-22
2022/02/25 00:38:16;;;;;;;40.28;24.65;;;;;;;1.72;71.73;100591.19;5051878;28;20090;-22
2022/02/25 00:40:41;;;;;;;31.60;19.35;;;;;;;0.95;71.47;100588.78;5069566;28;20131;-22
2022/02/25 00:43:07;;;;;;;19.60;12.10;;;;;;;-0.15;74.22;100594.41;5069318;28;20522;-22
2022/02/25 00:45:32;;;;;;;18.17;11.05;;;;;;;-0.39;75.17;100591.34;5069326;28;20039;-22
2022/02/25 00:47:58;;;;;;;23.20;13.80;;;;;;;0.16;74.33;100587.28;5051588;28;20059;-22
2022/02/25 00:50:23;;;;;;;23.45;13.50;;;;;;;0.63;73.49;100583.88;5069184;28;20025;-21
2022/02/25 00:52:49;;;;;;;28.80;15.52;;;;;;;0.93;73.07;100579.41;5069249;28;20029;-22
2022/02/25 00:55:14;;;;;;;29.92;17.35;;;;;;;0.86;74.06;100575.66;5069299;28;20086;-22
2022/02/25 00:57:46;;;;;;;28.15;16.85;;;;;;;0.76;74.40;100573.91;5051480;28;20032;-22
2022/02/25 01:00:13;;;;;;;30.73;17.45;;;;;;;0.85;74.60;100555.66;5069185;28;20040;-22
2022/02/25 01:02:38;;;;;;;40.90;23.27;;;;;;;1.23;72.68;100566.94;5051315;28;20047;-22
2022/02/25 01:05:04;;;;;;;67.32;34.20;;;;;;;1.05;73.05;100566.91;5050068;28;20028;-23
2022/02/25 01:07:30;;;;;;;35.45;19.92;;;;;;;0.51;72.72;100548.28;5068680;28;20540;-22
2022/02/25 01:09:55;;;;;;;24.05;14.77;;;;;;;-0.10;74.44;100570.41;5051678;28;20047;-22
2022/02/25 01:12:20;;;;;;;21.30;13.60;;;;;;;-0.53;76.15;100561.97;5068756;28;20428;-23
2022/02/25 01:14:46;;;;;;;20.85;12.40;;;;;;;-0.18;76.79;100568.50;5069234;28;20040;-22
2022/02/25 01:17:11;;;;;;;55.25;28.55;;;;;;;0.18;75.26;100566.13;5050960;28;20032;-22
2022/02/25 01:19:37;;;;;;;37.80;20.73;;;;;;;0.55;74.04;100536.53;5068673;28;20488;-22
2022/02/25 01:22:02;;;;;;;52.72;26.45;;;;;;;0.64;74.22;100530.44;5050666;28;20043;-22
2022/02/25 01:24:28;;;;;;;92.85;41.28;;;;;;;0.97;73.88;100549.25;5068589;28;20029;-22
2022/02/25 01:26:53;;;;;;;37.25;19.77;;;;;;;1.32;72.22;100552.94;5068737;28;20101;-22
2022/02/25 01:29:19;;;;;;;34.28;18.77;;;;;;;1.22;72.81;100550.38;5068411;28;20413;-22
2022/02/25 01:31:46;;;;;;;32.20;17.55;;;;;;;1.15;73.38;100547.50;5050629;28;20094;-22
2022/02/25 01:34:11;;;;;;;33.33;17.95;;;;;;;1.20;72.70;100545.25;5068823;28;20111;-23
2022/02/25 01:36:37;;;;;;;33.70;17.38;;;;;;;1.15;72.78;100531.75;5050328;28;20082;-23
2022/02/25 01:39:03;;;;;;;38.38;20.52;;;;;;;0.51;74.47;100517.63;5068364;28;20024;-22
2022/02/25 01:41:30;;;;;;;30.98;18.13;;;;;;;0.38;76.02;100538.91;5050359;28;20075;-22
2022/02/25 01:44:22;;;;;;;30.30;16.73;;;;;;;0.55;75.88;100528.66;5050586;28;20403;-22
2022/02/25 01:46:49;;;;;;;29.70;16.08;;;;;;;0.75;75.59;100530.25;5050552;28;20270;-22
2022/02/25 01:49:14;;;;;;;29.48;17.80;;;;;;;0.83;74.60;100536.59;5067719;28;20047;-22
2022/02/25 01:51:40;;;;;;;27.02;16.33;;;;;;;0.98;74.49;100532.50;5050278;28;20032;-22
2022/02/25 01:54:05;;;;;;;26.50;16.00;;;;;;;1.11;73.37;100509.38;5033789;28;20109;-22
2022/02/25 01:56:31;;;;;;;33.08;19.00;;;;;;;1.13;73.30;100536.31;5033185;28;20033;-22
2022/02/25 01:58:56;;;;;;;36.53;21.60;;;;;;;1.12;73.06;100531.19;5068181;28;20039;-22
2022/02/25 02:01:22;;;;;;;42.72;25.20;;;;;;;1.19;72.46;100519.16;5067569;28;20032;-22
2022/02/25 02:03:48;;;;;;;51.60;31.58;;;;;;;1.00;72.03;100525.31;5049856;28;20127;-22
2022/02/25 02:06:13;;;;;;;37.17;20.42;;;;;;;0.87;72.71;100522.19;5049990;28;20024;-22
2022/02/25 02:08:39;;;;;;;28.65;15.45;;;;;;;0.82;72.74;100529.66;5067895;28;20037;-22
2022/02/25 02:11:04;;;;;;;36.80;22.65;;;;;;;1.17;71.49;100518.47;5067361;28;20036;-22
2022/02/25 02:13:29;;;;;;;25.40;14.63;;;;;;;0.91;71.44;100508.63;5033130;28;20033;-22
2022/02/25 02:15:55;;;;;;;29.02;15.63;;;;;;;0.34;73.69;100527.03;5067551;28;20412;-22
2022/02/25 02:18:20;;;;;;;25.55;15.50;;;;;;;0.15;74.95;100525.28;5067896;28;20082;-22
2022/02/25 02:20:46;;;;;;;31.45;17.17;;;;;;;0.02;75.10;100516.03;5067851;28;20036;-22
2022/02/25 02:23:11;;;;;;;31.30;16.73;;;;;;;-0.02;75.52;100523.34;5067403;28;20028;-22
2022/02/25 02:25:37;;;;;;;31.77;17.70;;;;;;;0.17;73.98;100514.66;5067842;28;20051;-22
2022/02/25 02:28:21;;;;;;;30.73;18.58;;;;;;;0.02;74.90;100505.56;5067552;28;20419;-22
2022/02/25 02:30:48;;;;;;;33.75;18.13;;;;;;;0.15;74.73;100519.22;5067476;28;20020;-22
2022/02/25 02:33:13;;;;;;;30.48;18.60;;;;;;;0.18;75.29;100524.16;5049411;28;20078;-22
2022/02/25 02:35:39;;;;;;;33.90;19.42;;;;;;;0.23;75.66;100521.97;5067952;28;20041;-22
2022/02/25 02:38:04;;;;;;;36.80;19.48;;;;;;;0.38;73.90;100523.16;5067481;28;20031;-22
2022/02/25 02:40:30;;;;;;;34.75;19.65;;;;;;;0.31;75.04;100514.22;5049508;28;20521;-22
2022/02/25 02:42:55;;;;;;;36.38;19.52;;;;;;;0.46;74.33;100519.03;5049449;28;20032;-22
2022/02/25 02:45:21;;;;;;;35.40;19.88;;;;;;;0.31;74.41;100490.59;5032597;28;20439;-23
2022/02/25 02:47:46;;;;;;;33.10;20.33;;;;;;;0.73;73.26;100513.81;5067657;28;20127;-22
2022/02/25 02:50:12;;;;;;;33.17;19.15;;;;;;;0.45;74.10;100517.34;5067387;28;20036;-23
2022/02/25 02:52:37;;;;;;;34.30;20.10;;;;;;;0.73;73.15;100521.69;5033008;28;20554;-22
2022/02/25 02:55:04;;;;;;;33.00;18.65;;;;;;;0.73;72.65;100521.69;5049156;28;20037;-22
2022/02/25 02:57:30;;;;;;;161.43;100.63;;;;;;;0.72;71.36;100514.78;5049495;28;20056;-22
2022/02/25 02:59:55;;;;;;;53.10;34.60;;;;;;;0.67;72.22;100505.69;5066982;28;20150;-22
2022/02/25 03:02:20;;;;;;;32.75;18.35;;;;;;;0.70;71.45;100493.09;5067627;28;20028;-22
2022/02/25 03:04:46;;;;;;;35.80;20.15;;;;;;;0.99;71.13;100505.28;5032940;28;20037;-23
2022/02/25 03:07:12;;;;;;;36.58;19.38;;;;;;;1.05;70.62;100509.94;5048952;28;20033;-22
2022/02/25 03:09:38;;;;;;;35.30;19.02;;;;;;;0.70;71.27;100511.47;5067182;28;20412;-23
2022/02/25 03:12:03;;;;;;;31.20;18.25;;;;;;;0.72;71.85;100514.78;5032356;28;20052;-23
2022/02/25 03:14:29;;;;;;;28.85;16.95;;;;;;;0.65;70.97;100508.44;5066784;28;20043;-22
2022/02/25 03:16:54;;;;;;;28.17;16.17;;;;;;;0.62;70.97;100511.38;5049159;28;20085;-22
2022/02/25 03:19:20;;;;;;;35.20;21.63;;;;;;;0.91;69.22;100490.25;5066848;28;20472;-22
2022/02/25 03:21:45;;;;;;;46.05;25.13;;;;;;;0.80;69.74;100507.03;5048972;28;20025;-23
2022/02/25 03:24:11;;;;;;;32.45;17.30;;;;;;;0.58;70.14;100492.47;5049082;28;20073;-22
2022/02/25 03:26:36;;;;;;;34.83;18.90;;;;;;;1.01;69.33;100524.34;5049326;28;20032;-22
2022/02/25 03:29:03;;;;;;;36.25;19.50;;;;;;;0.62;69.84;100503.50;5070095;28;20033;-22
2022/02/25 03:31:29;;;;;;;52.30;28.20;;;;;;;0.25;71.16;100522.66;5052981;28;20063;-22
2022/02/25 03:33:54;;;;;;;46.65;24.45;;;;;;;-0.16;73.53;100519.38;5070346;28;20523;-22
2022/02/25 03:36:19;;;;;;;33.33;17.85;;;;;;;0.30;73.03;100514.34;5070345;28;20036;-22
2022/02/25 03:38:45;;;;;;;44.05;22.05;;;;;;;0.64;70.64;100512.06;5070224;28;20470;-22
2022/02/25 03:41:10;;;;;;;56.75;29.48;;;;;;;0.53;71.71;100513.06;5070161;28;20036;-23
2022/02/25 03:43:36;;;;;;;56.92;30.63;;;;;;;0.21;72.08;100510.78;5052239;28;20037;-22
2022/02/25 03:46:02;;;;;;;41.38;23.95;;;;;;;-0.08;74.16;100501.16;5052114;28;20059;-22
2022/02/25 03:48:27;;;;;;;29.75;16.75;;;;;;;0.42;72.34;100496.66;5070278;28;20033;-22
2022/02/25 03:50:53;;;;;;;26.77;14.98;;;;;;;0.75;71.30;100504.00;5051898;28;20399;-22
2022/02/25 03:53:18;;;;;;;26.88;14.52;;;;;;;0.53;72.03;100501.72;5051803;28;20029;-23
2022/02/25 03:55:44;;;;;;;22.77;13.23;;;;;;;0.66;71.01;100502.25;5069806;28;20039;-22
2022/02/25 03:58:09;;;;;;;22.75;13.32;;;;;;;0.47;70.24;100510.16;5051762;28;20404;-22
2022/02/25 04:00:35;;;;;;;23.55;13.07;;;;;;;0.23;70.88;100503.59;5069652;28;20040;-22
2022/02/25 04:03:00;;;;;;;27.48;13.93;;;;;;;0.27;72.63;100520.72;5069815;28;20492;-22
2022/02/25 04:05:26;;;;;;;24.10;13.15;;;;;;;0.11;72.56;100499.47;5069738;28;20412;-22
2022/02/25 04:07:53;;;;;;;25.45;14.10;;;;;;;0.33;71.64;100491.28;5051551;28;20082;-22
2022/02/25 04:10:19;;;;;;;27.40;13.38;;;;;;;0.56;70.67;100504.06;5069586;28;20064;-22
2022/02/25 04:12:44;;;;;;;27.73;14.13;;;;;;;0.56;70.33;100506.69;5051251;28;20428;-22
2022/02/25 04:15:10;;;;;;;20.83;12.07;;;;;;;0.54;70.16;100501.59;5069122;28;20032;-22
2022/02/25 04:17:36;;;;;;;25.23;13.20;;;;;;;0.56;70.02;100499.66;5069457;28;20036;-22
2022/02/25 04:20:01;;;;;;;26.30;13.18;;;;;;;-0.01;70.79;100475.19;5051325;28;20048;-22
2022/02/25 04:22:27;;;;;;;23.13;12.55;;;;;;;0.57;69.70;100501.31;5069404;28;20044;-22
2022/02/25 04:24:52;;;;;;;25.35;14.75;;;;;;;0.72;69.49;100485.91;5069227;28;20029;-23
2022/02/25 04:27:18;;;;;;;24.73;13.73;;;;;;;0.53;69.80;100501.72;5050948;28;20063;-22
2022/02/25 04:29:44;;;;;;;27.30;13.93;;;;;;;0.39;69.83;100501.22;5051199;28;20102;-22
2022/02/25 04:32:09;;;;;;;25.88;13.55;;;;;;;0.10;72.24;100510.94;5068984;28;20393;-22
2022/02/25 04:34:35;;;;;;;21.42;13.25;;;;;;;0.09;72.99;100506.66;5051043;28;20035;-22
2022/02/25 04:37:00;;;;;;;41.15;15.05;;;;;;;0.10;72.60;100496.03;5068866;28;20040;-23
2022/02/25 04:39:26;;;;;;;27.13;14.80;;;;;;;0.53;70.35;100504.34;5050141;28;20031;-22
2022/02/25 04:41:51;;;;;;;19.77;12.55;;;;;;;0.53;69.59;100506.97;5068921;28;20165;-22
2022/02/25 04:44:17;;;;;;;26.45;16.05;;;;;;;0.40;69.93;100489.75;5069030;28;20507;-22
2022/02/25 04:46:42;;;;;;;26.05;16.00;;;;;;;0.01;70.70;100488.19;5067802;28;20029;-22
2022/02/25 04:49:08;;;;;;;27.52;16.67;;;;;;;0.33;70.46;100495.72;5034129;28;20037;-22
2022/02/25 04:51:33;;;;;;;24.55;14.82;;;;;;;-0.10;70.92;100507.47;5068918;28;20420;-22
2022/02/25 04:53:59;;;;;;;22.63;12.77;;;;;;;0.04;72.17;100499.22;5068920;28;20032;-22
2022/02/25 04:56:24;;;;;;;21.48;11.68;;;;;;;0.09;69.57;100496.19;5068454;28;20738;-22
2022/02/25 04:58:50;;;;;;;19.55;11.73;;;;;;;0.36;70.13;100498.03;5068571;28;20032;-22
2022/02/25 05:01:15;;;;;;;17.73;11.07;;;;;;;0.05;70.25;100489.56;5068673;28;20040;-22
2022/02/25 05:03:41;;;;;;;20.30;11.40;;;;;;;0.11;70.32;100465.41;5068711;28;20029;-22
2022/02/25 05:06:06;;;;;;;17.65;11.32;;;;;;;0.05;71.01;100492.19;5050952;28;20040;-22
2022/02/25 05:08:32;;;;;;;21.55;11.57;;;;;;;0.28;71.05;100496.13;5034061;28;20098;-22
2022/02/25 05:10:57;;;;;;;19.55;11.52;;;;;;;-0.17;70.96;100475.75;5068899;28;20052;-23
2022/02/25 05:13:23;;;;;;;19.77;11.45;;;;;;;-0.36;72.61;100497.56;5067732;28;20083;-23
2022/02/25 05:21:16;;;;;;;20.33;11.15;;;;;;;0.14;70.92;100500.03;5068204;28;20585;-23
2022/02/25 05:23:42;;;;;;;19.63;11.40;;;;;;;0.24;69.85;100510.50;5050223;28;20036;-23
2022/02/25 05:26:07;;;;;;;23.45;12.73;;;;;;;0.42;69.48;100496.66;5068565;28;20545;-22
2022/02/25 05:28:33;;;;;;;20.05;11.07;;;;;;;0.06;70.36;100504.31;5068248;28;20035;-22
2022/02/25 05:30:58;;;;;;;20.77;12.50;;;;;;;-0.30;71.55;100497.03;5050212;28;20450;-22
2022/02/25 05:33:24;;;;;;;22.30;13.45;;;;;;;-0.36;72.34;100486.28;5049824;28;20036;-22
2022/02/25 05:35:49;;;;;;;28.95;16.90;;;;;;;-0.31;72.68;100484.03;5068011;28;20040;-22
2022/02/25 05:38:14;;;;;;;21.88;12.90;;;;;;;0.22;71.46;100498.50;5067635;28;20029;-22
2022/02/25 05:40:40;;;;;;;24.63;12.43;;;;;;;0.35;70.31;100497.22;5067846;28;20098;-22
2022/02/25 05:43:05;;;;;;;56.63;24.55;;;;;;;0.03;71.26;100496.72;5049859;28;20514;-22
2022/02/25 05:45:31;;;;;;;78.18;34.88;;;;;;;0.21;71.49;100516.03;5067701;28;20097;-22
2022/02/25 05:47:56;;;;;;;21.92;13.15;;;;;;;0.66;70.68;100504.06;5067926;28;20028;-22
2022/02/25 05:50:23;;;;;;;21.88;11.32;;;;;;;0.68;69.20;100510.81;5067289;28;20033;-22
2022/02/25 05:52:48;;;;;;;20.77;11.60;;;;;;;0.68;69.91;100502.09;5067628;28;20036;-22
2022/02/25 05:55:15;;;;;;;18.20;12.07;;;;;;;0.83;69.77;100494.59;5049182;28;20028;-22
2022/02/25 05:57:40;;;;;;;22.98;12.25;;;;;;;0.79;69.79;100518.47;5049749;28;20027;-22
2022/02/25 06:00:07;;;;;;;30.65;17.73;;;;;;;1.18;69.03;100513.03;5049418;28;20029;-22
2022/02/25 06:02:33;;;;;;;27.20;14.73;;;;;;;1.24;69.08;100510.81;5049631;28;20028;-22
2022/02/25 06:04:58;;;;;;;33.90;18.08;;;;;;;1.54;67.99;100522.81;5067853;28;20042;-22
2022/02/25 06:07:24;;;;;;;44.00;24.48;;;;;;;0.69;71.28;100515.06;5049187;28;20025;-22
2022/02/25 06:09:49;;;;;;;125.78;77.85;;;;;;;0.51;71.51;100524.66;5067541;28;20028;-22
2022/02/25 06:12:15;;;;;;;51.05;31.38;;;;;;;0.43;72.35;100519.28;5067428;28;20048;-22
2022/02/25 06:14:41;;;;;;;44.25;24.58;;;;;;;0.91;71.43;100518.31;5067872;28;20036;-22
2022/02/25 06:17:06;;;;;;;31.70;19.23;;;;;;;1.35;70.78;100521.13;5049031;28;20561;-23
2022/02/25 06:19:31;;;;;;;28.75;16.73;;;;;;;1.58;69.36;100524.97;5049416;28;20035;-22
2022/02/25 06:21:57;;;;;;;24.40;13.63;;;;;;;1.49;70.47;100522.41;5049051;28;20029;-22
2022/02/25 06:24:22;;;;;;;22.60;11.95;;;;;;;1.77;69.45;100531.06;5067586;28;20031;-22
2022/02/25 06:26:48;;;;;;;19.42;11.70;;;;;;;1.81;69.88;100521.91;5067312;28;20044;-22
2022/02/25 06:29:13;;;;;;;19.63;11.95;;;;;;;1.82;70.33;100518.31;5049100;28;20033;-22
2022/02/25 06:31:39;;;;;;;18.90;11.40;;;;;;;1.76;71.00;100518.91;5049364;28;20573;-22
2022/02/25 06:34:04;;;;;;;19.95;11.82;;;;;;;1.99;70.61;100519.28;5065830;28;20040;-23
2022/02/25 06:36:30;;;;;;;21.98;14.23;;;;;;;1.90;70.08;100526.28;5066804;28;20177;-22
2022/02/25 06:38:55;;;;;;;26.13;15.10;;;;;;;1.91;70.80;100498.16;5064985;28;20500;-23
2022/02/25 06:41:23;;;;;;;21.13;14.38;;;;;;;1.90;70.94;100515.75;5065612;28;20480;-22
2022/02/25 06:43:49;;;;;;;22.58;13.82;;;;;;;2.01;69.62;100517.31;5065471;28;20075;-22
2022/02/25 06:46:14;;;;;;;24.10;14.48;;;;;;;2.16;69.43;100517.59;5065663;28;20029;-22
2022/02/25 06:48:41;;;;;;;22.08;12.85;;;;;;;2.50;68.35;100512.41;5083368;28;20031;-22
2022/02/25 06:51:06;;;;;;;23.20;13.90;;;;;;;2.61;67.86;100524.47;5068478;28;20036;-22
2022/02/25 06:53:32;;;;;;;20.98;11.65;;;;;;;2.64;68.12;100508.38;5067096;28;20056;-23
2022/02/25 06:55:57;;;;;;;18.23;10.70;;;;;;;2.90;68.25;100524.16;5062598;28;20083;-22
2022/02/25 06:58:23;;;;;;;18.63;10.73;;;;;;;3.30;66.98;100529.75;5068772;28;20464;-22
2022/02/25 07:00:48;;;;;;;12.40;7.45;;;;;;;2.95;65.67;100510.50;5068726;28;20083;-23
2022/02/25 07:03:14;;;;;;;106.72;43.38;;;;;;;3.01;67.02;100521.22;5090089;28;20039;-22
2022/02/25 07:05:39;;;;;;;22.88;11.82;;;;;;;3.20;66.59;100537.78;5072529;28;20039;-23
2022/02/25 07:08:06;;;;;;;14.77;8.85;;;;;;;3.15;65.63;100540.06;5090901;28;20089;-22
2022/02/25 07:10:32;;;;;;;12.88;6.93;;;;;;;2.97;66.39;100538.34;5056007;28;20517;-22
2022/02/25 07:12:57;;;;;;;12.02;6.47;;;;;;;3.12;65.17;100543.81;5072506;28;20085;-22
2022/02/25 07:15:22;;;;;;;12.55;7.20;;;;;;;3.37;64.77;100538.63;5090795;28;20023;-22
2022/02/25 07:17:48;;;;;;;16.95;10.32;;;;;;;3.68;64.55;100543.34;5090551;28;20093;-22
2022/02/25 07:20:13;;;;;;;19.33;8.82;;;;;;;4.02;62.41;100545.84;5071927;28;20732;-22
2022/02/25 07:22:41;;;;;;;11.60;6.57;;;;;;;3.86;63.52;100551.13;5090542;28;20063;-22
2022/02/25 07:25:07;;;;;;;23.40;13.32;;;;;;;3.81;63.36;100546.34;5090432;28;20032;-22
2022/02/25 07:27:32;;;;;;;14.43;9.43;;;;;;;3.74;64.17;100543.53;5072244;28;20047;-23
2022/02/25 07:29:58;;;;;;;10.10;5.72;;;;;;;3.72;64.03;100544.66;5090561;28;20480;-23
2022/02/25 07:32:24;;;;;;;9.45;5.05;;;;;;;3.78;63.88;100544.84;5090064;28;20028;-22
2022/02/25 07:34:50;;;;;;;9.02;4.80;;;;;;;3.68;64.11;100548.59;5071752;28;20039;-22
2022/02/25 07:37:16;;;;;;;8.82;5.07;;;;;;;3.73;63.21;100533.13;5090112;28;20097;-22
2022/02/25 07:39:41;;;;;;;8.65;5.00;;;;;;;3.75;63.69;100555.72;5071989;28;20400;-24
2022/02/25 07:42:07;;;;;;;9.40;5.28;;;;;;;4.03;63.38;100547.53;5055349;28;20384;-22
2022/02/25 07:44:32;;;;;;;10.25;5.57;;;;;;;4.11;62.95;100555.44;5089991;28;20039;-23
2022/02/25 07:46:58;;;;;;;9.85;5.95;;;;;;;3.97;62.42;100558.72;5071610;28;20039;-22
2022/02/25 07:49:23;;;;;;;8.82;5.30;;;;;;;3.96;62.47;100552.63;5089733;28;20028;-23
2022/02/25 07:51:50;;;;;;;9.85;6.20;;;;;;;4.41;63.22;100555.75;5089863;28;20058;-22
2022/02/25 07:54:19;;;;;;;11.35;5.75;;;;;;;4.51;61.43;100550.28;5058986;28;20033;-22
2022/02/25 07:56:45;;;;;;;10.57;5.88;;;;;;;4.41;60.25;100530.19;5031928;28;20033;-22
2022/02/25 07:59:10;;;;;;;9.02;5.68;;;;;;;4.59;60.22;100547.63;5031854;28;20064;-23
2022/02/25 08:01:36;;;;;;;10.40;5.97;;;;;;;5.13;61.14;100545.19;5031497;28;20478;-23
2022/02/25 08:04:01;;;;;;;10.48;5.53;;;;;;;5.01;58.96;100539.44;5031517;28;20404;-22
2022/02/25 08:06:27;;;;;;;11.23;5.50;;;;;;;5.04;57.79;100552.31;5048917;28;20037;-22
2022/02/25 08:08:52;;;;;;;9.02;5.43;;;;;;;5.30;58.18;100545.13;5049852;28;20033;-23
2022/02/25 08:11:18;;;;;;;9.82;5.20;;;;;;;5.50;58.88;100535.75;5049466;28;20029;-23
2022/02/25 08:13:43;;;;;;;9.63;5.45;;;;;;;5.73;55.60;100525.19;5030783;28;20033;-25
2022/02/25 08:16:12;;;;;;;11.45;6.22;;;;;;;5.63;58.36;100546.56;5014822;28;20075;-23
2022/02/25 08:18:38;;;;;;;9.80;5.13;;;;;;;5.95;55.82;100536.81;5048817;28;20021;-22
2022/02/25 08:21:03;;;;;;;10.15;5.93;;;;;;;6.00;54.98;100525.69;5049081;28;20554;-22
2022/02/25 08:23:29;;;;;;;9.77;6.05;;;;;;;6.39;56.05;100536.09;5049176;28;20040;-22
2022/02/25 08:25:54;;;;;;;10.18;6.28;;;;;;;6.55;53.26;100523.72;5049479;28;20048;-23
2022/02/25 08:28:20;;;;;;;18.70;10.43;;;;;;;7.13;55.73;100526.53;5048929;28;20040;-22
2022/02/25 08:30:46;;;;;;;10.80;5.88;;;;;;;7.18;53.00;100542.72;5031473;28;20543;-22
2022/02/25 08:33:12;;;;;;;13.43;7.47;;;;;;;7.19;53.69;100523.97;5048995;28;20029;-22
2022/02/25 08:35:37;;;;;;;16.23;9.32;;;;;;;7.26;52.69;100520.59;5049495;28;20029;-22
2022/02/25 08:38:03;;;;;;;7.75;4.60;;;;;;;7.41;50.00;100524.81;5031461;28;20484;-22
2022/02/25 08:40:29;;;;;;;13.13;7.80;;;;;;;7.40;51.72;100531.16;5014500;28;20500;-22
2022/02/25 08:42:54;;;;;;;9.20;5.47;;;;;;;7.80;49.23;100534.22;5049139;28;20029;-23
2022/02/25 08:45:20;;;;;;;12.70;6.38;;;;;;;7.87;49.67;100504.25;5048952;28;20114;-23
2022/02/25 08:47:46;;;;;;;10.82;5.53;;;;;;;8.00;50.44;100534.44;5030875;28;20033;-23
2022/02/25 08:50:12;;;;;;;9.88;6.00;;;;;;;7.89;50.18;100500.44;5030727;28;20141;-23
2022/02/25 08:52:37;;;;;;;11.20;6.28;;;;;;;8.29;50.16;100518.53;5049013;28;20043;-22
2022/02/25 08:55:03;;;;;;;11.73;6.35;;;;;;;8.21;50.16;100503.53;5048711;28;20052;-23
2022/02/25 08:57:28;;;;;;;12.15;6.18;;;;;;;8.48;50.72;100499.28;5048603;28;20028;-22
2022/02/25 08:59:54;;;;;;;8.18;5.03;;;;;;;8.99;49.29;100495.47;5048507;28;20033;-22
2022/02/25 09:02:19;;;;;;;9.98;5.55;;;;;;;9.14;47.52;100488.16;5047172;28;20408;-23
2022/02/25 09:04:45;;;;;;;9.27;5.72;;;;;;;9.05;46.86;100499.97;5067121;28;20172;-22
2022/02/25 09:07:10;;;;;;;9.60;5.95;;;;;;;9.07;47.78;100491.81;5068234;28;20028;-22
2022/02/25 09:09:36;;;;;;;7.65;4.93;;;;;;;9.13;46.75;100494.50;5050424;28;20024;-22
2022/02/25 09:12:02;;;;;;;7.63;4.68;;;;;;;8.96;47.31;100491.34;5068056;28;20087;-22
2022/02/25 09:14:29;;;;;;;8.27;4.53;;;;;;;9.10;46.65;100486.91;5067723;28;20032;-23
2022/02/25 09:16:55;;;;;;;6.97;4.30;;;;;;;9.32;46.07;100489.47;5065640;28;20554;-22
2022/02/25 09:19:22;;;;;;;8.80;4.20;;;;;;;9.26;45.89;100488.41;5050158;28;20833;-22
2022/02/25 09:21:47;;;;;;;8.07;4.65;;;;;;;9.44;46.57;100471.88;5067972;28;20028;-22
2022/02/25 09:24:13;;;;;;;10.60;4.07;;;;;;;9.09;45.45;100484.44;5049343;28;20499;-22
2022/02/25 09:26:38;;;;;;;8.63;4.85;;;;;;;9.19;47.41;100453.81;5049594;28;20039;-22
2022/02/25 09:29:05;;;;;;;10.40;5.07;;;;;;;9.50;48.75;100455.13;5049967;28;20123;-22
2022/02/25 09:31:31;;;;;;;7.90;5.20;;;;;;;9.56;46.58;100459.63;5067583;28;20808;-22
2022/02/25 09:33:56;;;;;;;8.00;4.88;;;;;;;9.68;45.21;100467.00;5067873;28;20098;-22
2022/02/25 09:36:22;;;;;;;9.75;5.75;;;;;;;9.23;46.56;100465.69;5067638;28;20029;-22
2022/02/25 09:38:47;;;;;;;7.38;4.38;;;;;;;9.14;46.27;100442.13;5067641;28;20519;-23
2022/02/25 09:41:12;;;;;;;8.73;4.47;;;;;;;9.58;46.14;100457.59;5067437;28;20032;-22
2022/02/25 09:43:38;;;;;;;9.98;5.00;;;;;;;10.05;46.22;100450.44;5049736;28;20157;-22
2022/02/25 09:46:06;;;;;;;7.95;4.53;;;;;;;10.21;45.30;100451.03;5049369;28;20032;-23
2022/02/25 09:48:31;;;;;;;7.05;3.95;;;;;;;9.91;43.97;100438.16;5049394;28;20052;-22
2022/02/25 09:50:57;;;;;;;7.00;3.72;;;;;;;10.34;43.65;100434.22;5049684;28;20112;-22
2022/02/25 09:53:23;;;;;;;8.43;4.53;;;;;;;10.79;42.08;100442.31;5049759;28;20028;-22
2022/02/25 09:55:49;;;;;;;8.27;3.88;;;;;;;10.40;42.55;100434.22;5067651;28;20036;-22
2022/02/25 09:58:14;;;;;;;7.47;3.00;;;;;;;10.16;41.36;100438.31;5049199;28;20480;-22
2022/02/25 10:00:40;;;;;;;7.03;3.58;;;;;;;10.46;41.08;100443.22;5066986;28;20036;-22
2022/02/25 10:03:07;;;;;;;7.15;3.00;;;;;;;10.72;40.17;100434.31;5067452;28;20428;-22
2022/02/25 10:05:34;;;;;;;6.05;3.13;;;;;;;10.67;39.34;100428.00;5049408;28;20040;-22
2022/02/25 10:08:08;;;;;;;5.05;3.10;;;;;;;10.68;40.20;100435.75;5067131;28;20503;-22
2022/02/25 10:10:43;;;;;;;7.32;3.58;;;;;;;10.88;41.06;100429.56;5067362;28;20107;-22
2022/02/25 10:13:08;;;;;;;4.65;2.22;;;;;;;11.03;36.38;100422.06;5067145;28;20810;-22
2022/02/25 10:15:35;;;;;;;5.05;2.22;;;;;;;11.16;35.60;100435.38;5067660;28;20041;-22
2022/02/25 10:18:05;;;;;;;5.13;2.78;;;;;;;11.23;38.41;100429.97;5016282;28;20539;-22
2022/02/25 10:20:32;;;;;;;4.57;2.53;;;;;;;11.57;36.17;100434.09;5067002;28;20029;-22
2022/02/25 10:22:58;;;;;;;4.40;2.40;;;;;;;11.71;36.34;100428.63;5049521;28;20029;-21
2022/02/25 10:25:25;;;;;;;4.47;2.20;;;;;;;11.58;36.95;100425.03;5049598;28;20044;-23
2022/02/25 10:27:51;;;;;;;4.77;2.73;;;;;;;11.81;36.48;100423.63;5049401;28;20024;-22
2022/02/25 10:30:18;;;;;;;5.22;2.65;;;;;;;11.80;35.95;100425.47;5067338;28;20517;-22
2022/02/25 10:32:48;;;;;;;5.78;2.45;;;;;;;12.27;33.63;100409.06;5067327;28;20085;-22
2022/02/25 10:35:20;;;;;;;6.22;2.60;;;;;;;12.12;34.63;100392.56;5067146;28;20028;-22
2022/02/25 10:37:59;;;;;;;4.15;2.10;;;;;;;11.94;34.14;100382.66;5071106;28;20093;-22
2022/02/25 10:40:25;;;;;;;5.22;2.38;;;;;;;12.48;34.34;100386.38;5070929;28;20038;-23
2022/02/25 10:42:50;;;;;;;4.60;2.03;;;;;;;12.90;34.08;100393.72;5071209;28;20033;-22
2022/02/25 10:45:32;;;;;;;5.95;2.20;;;;;;;12.53;32.79;100397.25;5071375;28;20108;-22
2022/02/25 10:48:03;;;;;;;4.55;2.10;;;;;;;13.07;32.00;100384.00;5071365;28;20040;-22
2022/02/25 10:50:29;;;;;;;4.13;2.28;;;;;;;13.51;32.49;100373.91;5071009;28;20050;-22
2022/02/25 10:52:55;;;;;;;4.47;2.10;;;;;;;12.80;31.79;100378.19;5070968;28;20040;-23
2022/02/25 10:55:22;;;;;;;4.05;2.30;;;;;;;12.73;31.56;100359.56;5053416;28;20033;-23
2022/02/25 10:57:48;;;;;;;4.05;2.20;;;;;;;13.12;31.34;100365.41;5053322;28;20028;-22
2022/02/25 11:00:14;;;;;;;4.20;2.08;;;;;;;13.53;30.60;100345.03;5070643;28;20450;-22
2022/02/25 11:02:41;;;;;;;3.88;2.15;;;;;;;13.78;27.96;100352.03;5071068;28;20116;-23
2022/02/25 11:05:11;;;;;;;5.43;2.80;;;;;;;14.39;28.98;100341.81;5070811;28;20496;-23
2022/02/25 11:07:38;;;;;;;3.72;1.98;;;;;;;14.88;26.86;100344.16;5070988;28;20032;-21
2022/02/25 11:10:05;;;;;;;4.60;2.40;;;;;;;14.47;28.97;100323.47;5070828;28;20040;-22
2022/02/25 11:12:30;;;;;;;4.95;2.30;;;;;;;13.69;27.91;100335.50;5035973;28;20090;-23
2022/02/25 11:14:57;;;;;;;4.15;2.35;;;;;;;14.15;30.44;100324.97;5036267;28;20419;-22
2022/02/25 11:17:23;;;;;;;4.43;1.95;;;;;;;14.40;27.19;100312.06;5052815;28;20029;-23
2022/02/25 11:19:50;;;;;;;3.30;1.70;;;;;;;14.39;25.31;100294.34;5052378;28;20399;-23
2022/02/25 11:22:18;;;;;;;4.25;1.73;;;;;;;14.60;24.39;100321.59;5070267;28;20036;-23